createdAt,value
2023-05-10T00:04:19.061Z,3.04
2023-05-10T00:15:17.167Z,3.04
2023-05-10T00:26:16.412Z,3.03
2023-05-10T00:37:12.938Z,3.03
2023-05-10T00:48:08.123Z,3.01
2023-05-10T00:59:10.597Z,3.02
2023-05-10T01:10:12.378Z,3.01
2023-05-10T01:21:02.896Z,3.00
2023-05-10T01:31:41.022Z,2.99
2023-05-10T01:42:20.762Z,2.98
2023-05-10T01:53:01.979Z,2.97
2023-05-10T02:03:44.288Z,2.96
2023-05-10T02:14:24.966Z,2.96
2023-05-10T02:25:05.515Z,2.95
2023-05-10T02:36:06.134Z,2.96
2023-05-10T02:47:08.206Z,2.95
2023-05-10T02:58:00.582Z,2.94
2023-05-10T03:08:48.532Z,2.94
2023-05-10T03:19:46.994Z,2.94
2023-05-10T03:30:50.632Z,2.94
2023-05-10T03:41:31.987Z,2.94
2023-05-10T03:52:36.123Z,2.94
2023-05-10T04:03:39.735Z,2.94
2023-05-10T04:14:45.630Z,2.96
2023-05-10T04:25:29.588Z,2.95
2023-05-10T04:36:24.931Z,2.96
2023-05-10T04:47:24.252Z,2.97
2023-05-10T04:58:19.893Z,2.99
2023-05-10T05:08:59.249Z,2.99
2023-05-10T05:19:48.944Z,3.00
2023-05-10T05:30:47.538Z,3.04
2023-05-10T05:41:26.309Z,3.05
2023-05-10T05:52:19.256Z,3.07
2023-05-10T06:03:14.343Z,3.08
2023-05-10T06:14:08.714Z,3.09
2023-05-10T06:25:08.315Z,3.11
2023-05-10T06:35:49.787Z,3.13
2023-05-10T06:46:40.978Z,3.17
2023-05-10T06:57:32.032Z,3.20
2023-05-10T07:08:09.056Z,3.24
2023-05-10T07:18:51.634Z,3.29
2023-05-10T07:29:41.552Z,3.31
2023-05-10T07:40:15.629Z,3.33
2023-05-10T07:50:55.301Z,3.34
2023-05-10T08:01:41.698Z,3.31
2023-05-10T08:12:25.261Z,3.30
2023-05-10T08:23:04.148Z,3.31
2023-05-10T08:33:37.580Z,3.32
2023-05-10T08:44:25.511Z,3.33
2023-05-10T08:55:22.161Z,3.34
2023-05-10T09:06:16.756Z,3.33
2023-05-10T09:17:07.938Z,3.33
2023-05-10T09:27:55.609Z,3.32
2023-05-10T09:38:28.674Z,3.34
2023-05-10T09:49:21.460Z,3.34
2023-05-10T10:00:18.745Z,3.34
2023-05-10T10:11:12.690Z,3.35
2023-05-10T10:22:05.347Z,3.36
2023-05-10T10:33:10.368Z,3.36
2023-05-10T10:44:07.060Z,3.36
2023-05-10T10:55:04.148Z,3.34
2023-05-10T11:06:01.988Z,3.35
2023-05-10T11:16:35.315Z,3.37
2023-05-10T11:27:08.309Z,3.36
2023-05-10T11:37:41.954Z,3.33
2023-05-10T11:48:29.316Z,3.33
2023-05-10T11:59:08.420Z,3.38
2023-05-10T12:09:44.017Z,3.35
2023-05-10T12:20:28.100Z,3.34
2023-05-10T12:31:09.488Z,3.34
2023-05-10T12:41:43.732Z,3.34
2023-05-10T12:52:36.916Z,3.33
2023-05-10T13:03:33.844Z,3.34
2023-05-10T13:14:28.427Z,3.34
2023-05-10T13:25:26.438Z,3.34
2023-05-10T13:36:20.887Z,3.34
2023-05-10T13:47:20.067Z,3.35
2023-05-10T13:58:17.860Z,3.34
2023-05-10T14:09:16.570Z,3.34
2023-05-10T14:19:52.300Z,3.34
2023-05-10T14:30:26.924Z,3.34
2023-05-10T14:41:20.675Z,3.34
2023-05-10T14:52:14.049Z,3.35
2023-05-10T15:02:47.505Z,3.36
2023-05-10T15:13:38.996Z,3.38
2023-05-10T15:24:11.660Z,3.36
2023-05-10T15:34:43.973Z,3.34
2023-05-10T15:45:37.791Z,3.36
2023-05-10T15:56:29.675Z,3.36
2023-05-10T16:07:22.672Z,3.36
2023-05-10T16:18:20.969Z,3.37
2023-05-10T16:29:20.219Z,3.34
2023-05-10T16:39:56.391Z,3.33
2023-05-10T16:50:55.358Z,3.32
2023-05-10T17:01:33.557Z,3.31
2023-05-10T17:12:26.017Z,3.30
2023-05-10T17:23:19.907Z,3.30
2023-05-10T17:34:17.686Z,3.29
2023-05-10T17:45:08.409Z,3.28
2023-05-10T17:55:59.625Z,3.26
2023-05-10T18:06:52.472Z,3.25
2023-05-10T18:17:46.798Z,3.25
2023-05-10T18:28:46.862Z,3.24
2023-05-10T18:39:41.805Z,3.23
2023-05-10T18:50:16.670Z,3.21
2023-05-10T19:00:51.730Z,3.20
2023-05-10T19:11:26.366Z,3.19
2023-05-10T19:22:35.972Z,3.19
2023-05-10T19:33:26.220Z,3.18
2023-05-10T19:44:13.044Z,3.17
2023-05-10T19:55:11.662Z,3.17
2023-05-10T20:06:11.104Z,3.17
2023-05-10T20:17:10.847Z,3.17
2023-05-10T20:28:09.820Z,3.16
2023-05-10T20:39:09.486Z,3.15
2023-05-10T20:50:03.103Z,3.15
2023-05-10T21:00:58.656Z,3.15
2023-05-10T21:11:52.403Z,3.14
2023-05-10T21:22:28.927Z,3.13
2023-05-10T21:33:27.436Z,3.13
2023-05-10T21:44:28.135Z,3.13
2023-05-10T21:55:26.584Z,3.12
2023-05-10T22:06:21.015Z,3.11
2023-05-10T22:17:14.164Z,3.11
2023-05-10T22:27:50.756Z,3.10
2023-05-10T22:38:27.151Z,3.09
2023-05-10T22:49:03.253Z,3.08
2023-05-10T22:59:52.875Z,3.07
2023-05-10T23:10:52.002Z,3.07
2023-05-10T23:21:49.562Z,3.07
2023-05-10T23:32:50.059Z,3.07
2023-05-10T23:43:50.276Z,3.07
2023-05-10T23:54:48.646Z,3.07
